sensor_id;sensor_type;location;lat;lon;timestamp;temperature;humidity
13856;DHT22;6998;53.608;9.958;2023-04-03T04:45:00;-2.00;99.90
13856;DHT22;6998;53.608;9.958;2023-04-03T04:48:05;-2.10;99.90
13856;DHT22;6998;53.608;9.958;2023-04-03T04:54:39;-2.10;99.90
13856;DHT22;6998;53.608;9.958;2023-04-03T04:58:00;-2.00;99.90
13856;DHT22;6998;53.608;9.958;2023-04-03T06:14:31;-1.30;99.90
13856;DHT22;6998;53.608;9.958;2023-04-03T06:17:17;-1.10;99.90
13856;DHT22;6998;53.608;9.958;2023-04-03T07:21:45;2.60;99.90
13856;DHT22;6998;53.608;9.958;2023-04-03T07:28:41;3.00;99.90
13856;DHT22;6998;53.608;9.958;2023-04-03T07:31:43;3.30;99.90
13856;DHT22;6998;53.608;9.958;2023-04-03T11:08:17;9.30;99.90
13856;DHT22;6998;53.608;9.958;2023-04-03T11:10:55;9.40;99.90
13856;DHT22;6998;53.608;9.958;2023-04-03T11:13:35;9.50;99.90
13856;DHT22;6998;53.608;9.958;2023-04-03T11:16:35;9.50;99.90
13856;DHT22;6998;53.608;9.958;2023-04-03T11:19:44;9.30;99.90
13856;DHT22;6998;53.608;9.958;2023-04-03T11:22:22;9.30;99.90
13856;DHT22;6998;53.608;9.958;2023-04-03T11:25:19;9.50;99.90
13856;DHT22;6998;53.608;9.958;2023-04-03T11:27:55;9.70;99.90
13856;DHT22;6998;53.608;9.958;2023-04-03T11:30:55;10.00;99.90
13856;DHT22;6998;53.608;9.958;2023-04-03T11:34:15;9.70;99.90
13856;DHT22;6998;53.608;9.958;2023-04-03T11:47:48;8.70;99.90
13856;DHT22;6998;53.608;9.958;2023-04-03T11:50:39;8.70;99.90
13856;DHT22;6998;53.608;9.958;2023-04-03T11:53:34;8.80;99.90
13856;DHT22;6998;53.608;9.958;2023-04-03T12:29:18;8.30;99.90
13856;DHT22;6998;53.608;9.958;2023-04-03T12:32:01;8.40;99.90
13856;DHT22;6998;53.608;9.958;2023-04-03T12:34:46;8.60;99.90
13856;DHT22;6998;53.608;9.958;2023-04-03T12:37:26;8.90;99.90
13856;DHT22;6998;53.608;9.958;2023-04-03T12:40:07;9.10;99.90
13856;DHT22;6998;53.608;9.958;2023-04-03T12:56:27;9.80;99.90
13856;DHT22;6998;53.608;9.958;2023-04-03T12:58:56;10.00;99.90
13856;DHT22;6998;53.608;9.958;2023-04-03T13:01:38;10.40;99.90
13856;DHT22;6998;53.608;9.958;2023-04-03T13:04:05;10.30;99.40
13856;DHT22;6998;53.608;9.958;2023-04-03T13:06:37;10.30;99.90
13856;DHT22;6998;53.608;9.958;2023-04-03T13:09:14;10.40;99.40
13856;DHT22;6998;53.608;9.958;2023-04-03T13:11:49;10.50;99.40
13856;DHT22;6998;53.608;9.958;2023-04-03T13:14:22;10.30;99.90
13856;DHT22;6998;53.608;9.958;2023-04-03T13:16:56;10.00;99.90
13856;DHT22;6998;53.608;9.958;2023-04-03T13:19:31;10.10;99.90
13856;DHT22;6998;53.608;9.958;2023-04-03T13:22:06;10.00;99.90
13856;DHT22;6998;53.608;9.958;2023-04-03T13:27:47;10.20;99.40
13856;DHT22;6998;53.608;9.958;2023-04-03T13:30:55;10.10;99.90
13856;DHT22;6998;53.608;9.958;2023-04-03T13:36:58;10.30;99.00
13856;DHT22;6998;53.608;9.958;2023-04-03T13:39:45;10.20;99.90
13856;DHT22;6998;53.608;9.958;2023-04-03T13:42:23;10.10;99.80
13856;DHT22;6998;53.608;9.958;2023-04-03T13:45:20;10.00;99.80
13856;DHT22;6998;53.608;9.958;2023-04-03T13:47:50;9.90;99.60
13856;DHT22;6998;53.608;9.958;2023-04-03T13:50:24;10.00;99.90
13856;DHT22;6998;53.608;9.958;2023-04-03T13:53:23;10.00;99.90
13856;DHT22;6998;53.608;9.958;2023-04-03T14:04:54;9.30;99.90
13856;DHT22;6998;53.608;9.958;2023-04-03T14:07:26;9.50;99.90
13856;DHT22;6998;53.608;9.958;2023-04-03T14:09:53;9.60;99.90
13856;DHT22;6998;53.608;9.958;2023-04-03T14:12:26;10.00;99.90
13856;DHT22;6998;53.608;9.958;2023-04-03T14:15:16;9.80;99.90
13856;DHT22;6998;53.608;9.958;2023-04-03T14:17:47;9.80;99.90
13856;DHT22;6998;53.608;9.958;2023-04-03T14:20:24;9.80;99.90
13856;DHT22;6998;53.608;9.958;2023-04-03T14:23:02;9.50;99.90
13856;DHT22;6998;53.608;9.958;2023-04-03T14:25:43;9.40;99.90
13856;DHT22;6998;53.608;9.958;2023-04-03T14:28:47;9.40;99.90
13856;DHT22;6998;53.608;9.958;2023-04-03T14:31:20;9.20;99.90
13856;DHT22;6998;53.608;9.958;2023-04-03T14:33:47;9.20;99.90
13856;DHT22;6998;53.608;9.958;2023-04-03T14:36:21;9.50;99.90
13856;DHT22;6998;53.608;9.958;2023-04-03T14:38:49;9.70;99.90
13856;DHT22;6998;53.608;9.958;2023-04-03T14:41:19;10.00;99.90
13856;DHT22;6998;53.608;9.958;2023-04-03T14:44:02;10.30;99.90
13856;DHT22;6998;53.608;9.958;2023-04-03T14:46:35;10.40;99.90
13856;DHT22;6998;53.608;9.958;2023-04-03T14:49:03;10.30;99.90
13856;DHT22;6998;53.608;9.958;2023-04-03T14:51:34;10.00;99.90
13856;DHT22;6998;53.608;9.958;2023-04-03T14:54:03;9.60;99.90
13856;DHT22;6998;53.608;9.958;2023-04-03T14:56:34;9.40;99.90
13856;DHT22;6998;53.608;9.958;2023-04-03T14:59:01;9.40;99.90
13856;DHT22;6998;53.608;9.958;2023-04-03T15:01:29;9.60;99.90
13856;DHT22;6998;53.608;9.958;2023-04-03T15:03:56;9.80;99.90
13856;DHT22;6998;53.608;9.958;2023-04-03T15:09:31;9.50;99.90
13856;DHT22;6998;53.608;9.958;2023-04-03T15:11:58;9.40;99.90
13856;DHT22;6998;53.608;9.958;2023-04-03T15:14:25;9.50;99.90
13856;DHT22;6998;53.608;9.958;2023-04-03T15:16:55;9.70;99.90
13856;DHT22;6998;53.608;9.958;2023-04-03T15:19:25;9.80;99.90
13856;DHT22;6998;53.608;9.958;2023-04-03T15:21:55;9.70;99.90
13856;DHT22;6998;53.608;9.958;2023-04-03T15:24:22;9.80;99.90
13856;DHT22;6998;53.608;9.958;2023-04-03T15:30:39;9.50;99.90
13856;DHT22;6998;53.608;9.958;2023-04-03T15:33:07;9.20;99.90
13856;DHT22;6998;53.608;9.958;2023-04-03T15:35:36;9.10;99.90
13856;DHT22;6998;53.608;9.958;2023-04-03T15:38:03;8.90;99.90
13856;DHT22;6998;53.608;9.958;2023-04-03T15:57:36;8.10;99.90
13856;DHT22;6998;53.608;9.958;2023-04-03T16:14:34;8.80;99.90
13856;DHT22;6998;53.608;9.958;2023-04-03T16:24:29;8.80;99.90
13856;DHT22;6998;53.608;9.958;2023-04-03T16:30:57;8.00;99.90
13856;DHT22;6998;53.608;9.958;2023-04-03T16:33:54;7.90;99.90
13856;DHT22;6998;53.608;9.958;2023-04-03T20:43:37;2.30;99.90
13856;DHT22;6998;53.608;9.958;2023-04-03T22:15:28;1.80;99.90
